Time;durP1;ratioP1;P1;durP2;ratioP2;P2;SDS_P1;SDS_P2;PMS_P1;PMS_P2;Temp;Humidity;BMP_temperature;BMP_pressure;BME280_temperature;BME280_humidity;BME280_pressure;Samples;Min_cycle;Max_cycle;Signal;HPM_P1;HPM_P2
2022/04/15 00:01:33;;;;;;;34.97;21.43;;;;;;;10.70;62.18;98929.84;2282231;78;20982;-85
2022/04/15 00:04:34;;;;;;;32.10;18.70;;;;;;;10.79;61.92;98922.12;2282167;78;20957;-84
2022/04/15 00:07:34;;;;;;;26.47;18.13;;;;;;;10.84;61.27;98920.44;2281758;78;20966;-83
2022/04/15 00:10:34;;;;;;;31.17;19.57;;;;;;;10.88;60.99;98920.05;2282006;78;20973;-84
2022/04/15 00:13:35;;;;;;;31.80;18.10;;;;;;;10.92;60.73;98919.66;2282190;78;21356;-85
2022/04/15 00:16:35;;;;;;;37.17;18.30;;;;;;;10.97;60.24;98912.31;2282084;78;20982;-83
2022/04/15 00:19:36;;;;;;;35.00;21.40;;;;;;;11.04;60.12;98921.09;2281875;78;20930;-84
2022/04/15 00:22:36;;;;;;;35.37;18.33;;;;;;;11.01;59.74;98911.92;2281410;78;21008;-83
2022/04/15 00:25:36;;;;;;;27.93;17.33;;;;;;;11.02;59.57;98904.53;2281631;78;20995;-84
2022/04/15 00:28:37;;;;;;;32.20;17.13;;;;;;;11.02;59.37;98911.94;2281839;78;20980;-83
2022/04/15 00:31:37;;;;;;;27.97;18.47;;;;;;;11.12;59.10;98902.03;2281790;78;21329;-83
2022/04/15 00:34:38;;;;;;;31.93;17.80;;;;;;;11.23;58.65;98902.58;2281547;78;21365;-83
2022/04/15 00:37:38;;;;;;;29.97;17.57;;;;;;;11.30;58.61;98905.30;2281598;78;20918;-82
2022/04/15 00:40:38;;;;;;;37.23;19.90;;;;;;;11.35;58.50;98913.19;2281600;78;20977;-82
2022/04/15 00:43:39;;;;;;;51.73;25.23;;;;;;;11.39;58.23;98914.97;2281627;78;20930;-83
2022/04/15 00:46:39;;;;;;;45.53;23.10;;;;;;;11.41;57.95;98910.63;2281576;78;20949;-83
2022/04/15 00:49:39;;;;;;;41.60;21.23;;;;;;;11.41;57.96;98910.63;2281585;78;20970;-84
2022/04/15 00:52:40;;;;;;;37.20;20.53;;;;;;;11.40;57.91;98911.49;2281009;78;21422;-82
2022/04/15 00:55:42;;;;;;;36.37;19.27;;;;;;;11.37;57.87;98912.34;2281232;78;20929;-83
2022/04/15 00:58:41;;;;;;;88.20;24.17;;;;;;;11.33;57.79;98908.38;2281593;78;20980;-82
2022/04/15 01:01:41;;;;;;;98.00;26.10;;;;;;;11.21;57.74;98906.91;2281652;78;21322;-85
2022/04/15 01:04:41;;;;;;;40.43;22.17;;;;;;;11.14;58.06;98916.42;2281893;78;20914;-82
2022/04/15 01:07:42;;;;;;;41.40;21.70;;;;;;;11.15;58.26;98918.17;2281619;78;20914;-83
2022/04/15 01:10:42;;;;;;;50.10;22.93;;;;;;;11.18;58.29;98912.55;2281168;78;21380;-83
2022/04/15 01:13:43;;;;;;;43.77;22.47;;;;;;;11.20;58.17;98913.00;2281334;78;21268;-83
2022/04/15 01:16:43;;;;;;;47.37;23.73;;;;;;;11.20;58.17;98913.88;2281630;78;20962;-84
2022/04/15 01:19:43;;;;;;;49.67;26.17;;;;;;;11.20;58.20;98907.34;2281791;78;20985;-84
2022/04/15 01:22:44;;;;;;;52.07;27.43;;;;;;;11.22;58.10;98912.58;2281617;78;21365;-83
2022/04/15 01:25:44;;;;;;;45.97;25.30;;;;;;;11.22;58.20;98913.45;2281558;78;20930;-83
2022/04/15 01:28:45;;;;;;;53.93;25.53;;;;;;;11.20;58.25;98917.80;2281946;78;21057;-83
2022/04/15 01:31:45;;;;;;;43.07;24.07;;;;;;;11.15;58.31;98920.78;2281856;78;20954;-83
2022/04/15 01:34:45;;;;;;;42.50;24.33;;;;;;;11.13;58.60;98921.20;2281517;78;21313;-83
2022/04/15 01:37:46;;;;;;;43.30;24.37;;;;;;;11.09;58.72;98924.64;2281539;78;20950;-84
2022/04/15 01:40:46;;;;;;;46.47;25.20;;;;;;;11.04;58.93;98924.59;2281425;78;20923;-83
2022/04/15 01:43:47;;;;;;;43.43;24.03;;;;;;;11.04;59.08;98921.09;2281590;78;21348;-84
2022/04/15 01:46:47;;;;;;;40.87;24.13;;;;;;;11.00;59.12;98929.33;2281675;78;20958;-83
2022/04/15 01:49:47;;;;;;;52.13;26.10;;;;;;;10.99;59.30;98932.80;2281881;78;20957;-84
2022/04/15 01:52:48;;;;;;;41.37;25.30;;;;;;;10.99;59.46;98931.92;2251652;78;21280;-84
2022/04/15 01:55:48;;;;;;;41.17;24.47;;;;;;;10.98;59.47;98930.17;2249231;79;20950;-83
2022/04/15 01:58:49;;;;;;;41.87;24.40;;;;;;;10.94;59.70;98931.88;2249192;79;20936;-84
2022/04/15 02:01:49;;;;;;;51.57;25.40;;;;;;;10.93;59.83;98938.38;2248708;78;20929;-83
2022/04/15 02:04:50;;;;;;;48.13;26.27;;;;;;;10.90;59.85;98928.78;2249057;79;20988;-83
2022/04/15 02:07:50;;;;;;;44.20;24.93;;;;;;;10.92;60.05;98939.24;2249228;79;20924;-83
2022/04/15 02:10:53;;;;;;;48.50;26.27;;;;;;;10.92;60.18;98940.12;2249258;79;20984;-85
2022/04/15 02:13:53;;;;;;;54.13;28.50;;;;;;;10.91;60.48;98947.94;2249328;79;20953;-83
2022/04/15 02:16:54;;;;;;;52.97;29.50;;;;;;;10.88;60.74;98957.91;2249231;79;20952;-84
2022/04/15 02:19:54;;;;;;;50.83;29.50;;;;;;;10.85;60.95;98947.43;2248822;79;20960;-83
2022/04/15 02:22:55;;;;;;;55.80;30.80;;;;;;;10.84;61.20;98953.52;2248923;79;21103;-82
2022/04/15 02:25:55;;;;;;;51.17;29.50;;;;;;;10.82;61.44;98949.58;2249279;79;20928;-83
2022/04/15 02:28:55;;;;;;;50.17;28.87;;;;;;;10.80;61.71;98953.02;2248902;79;21342;-82
2022/04/15 02:31:56;;;;;;;51.27;29.47;;;;;;;10.80;62.03;98951.72;2248142;79;20923;-83
2022/04/15 02:34:56;;;;;;;46.57;29.20;;;;;;;10.78;62.15;98948.21;2248040;79;20973;-83
2022/04/15 02:37:57;;;;;;;55.13;28.63;;;;;;;10.77;62.40;98944.72;2248029;79;20960;-83
2022/04/15 02:40:57;;;;;;;47.57;28.97;;;;;;;10.77;62.32;98950.38;2248250;79;20939;-83
2022/04/15 02:43:57;;;;;;;53.17;30.97;;;;;;;10.76;62.45;98953.41;2248630;79;21330;-83
2022/04/15 02:46:58;;;;;;;52.97;32.50;;;;;;;10.77;62.73;98956.48;2249048;79;20975;-82
2022/04/15 02:49:58;;;;;;;51.80;30.47;;;;;;;10.77;62.72;98946.03;2249064;79;21079;-82
2022/04/15 02:52:59;;;;;;;46.97;29.47;;;;;;;10.81;62.77;98941.30;2285896;77;21437;-82
2022/04/15 02:55:59;;;;;;;47.83;29.83;;;;;;;10.85;62.91;98948.31;2290662;78;20901;-83
2022/04/15 02:58:59;;;;;;;45.53;28.93;;;;;;;10.85;62.99;98958.75;2291421;78;20943;-83
2022/04/15 03:02:04;;;;;;;51.93;31.23;;;;;;;10.84;63.14;98970.48;2290645;78;20991;-81
2022/04/15 03:05:03;;;;;;;48.47;31.00;;;;;;;10.84;63.42;98969.18;2268092;78;20956;-82
2022/04/15 03:08:04;;;;;;;46.43;29.67;;;;;;;10.83;63.59;98968.30;2290373;78;21697;-82
2022/04/15 03:11:06;;;;;;;52.80;30.20;;;;;;;10.85;63.87;98973.55;2290048;78;20892;-82
2022/04/15 03:14:05;;;;;;;47.70;30.80;;;;;;;10.85;63.93;98979.64;2290963;78;20987;-83
2022/04/15 03:17:05;;;;;;;48.60;31.83;;;;;;;10.87;64.19;98983.58;2291023;78;21324;-83
2022/04/15 03:20:06;;;;;;;48.30;32.47;;;;;;;10.91;64.84;98983.19;2290603;78;20916;-83
2022/04/15 03:23:06;;;;;;;49.00;32.50;;;;;;;10.96;64.86;98989.34;2290774;78;20927;-83
2022/04/15 03:26:07;;;;;;;55.20;35.07;;;;;;;11.00;65.17;98997.24;2290807;78;20952;-83
2022/04/15 03:29:06;;;;;;;53.47;34.93;;;;;;;11.02;65.55;98999.88;2290191;78;20955;-82
2022/04/15 03:32:07;;;;;;;54.50;33.80;;;;;;;11.02;65.90;98994.65;2290190;78;21280;-84
2022/04/15 03:35:07;;;;;;;55.97;35.07;;;;;;;11.05;66.21;99003.83;2290922;78;20889;-79
2022/04/15 03:38:08;;;;;;;47.07;32.97;;;;;;;11.07;66.62;99001.69;2290545;78;21358;-82
2022/04/15 03:41:08;;;;;;;55.77;35.37;;;;;;;11.08;66.82;99010.40;2290008;78;21002;-82
2022/04/15 03:44:10;;;;;;;56.40;34.40;;;;;;;11.06;67.73;99019.95;2290795;78;20967;-83
2022/04/15 03:47:09;;;;;;;50.60;33.63;;;;;;;11.06;68.19;99026.48;2290892;78;21581;-81
2022/04/15 03:50:09;;;;;;;52.20;34.07;;;;;;;11.06;67.95;99027.78;2290878;78;20960;-82
2022/04/15 03:53:10;;;;;;;52.70;34.67;;;;;;;11.03;68.50;99035.58;2281872;78;21048;-82
2022/04/15 03:56:10;;;;;;;47.50;33.30;;;;;;;11.02;69.46;99035.14;2279937;78;21380;-83
2022/04/15 03:59:11;;;;;;;57.90;36.40;;;;;;;10.96;69.51;99031.14;2280028;78;21022;-82
2022/04/15 04:02:11;;;;;;;46.37;35.40;;;;;;;10.93;71.05;99037.62;2280043;78;20926;-82
2022/04/15 04:05:13;;;;;;;52.03;36.50;;;;;;;10.90;70.66;99031.05;2279788;78;20953;-83
2022/04/15 04:08:12;;;;;;;52.13;35.53;;;;;;;10.88;71.12;99032.77;2280012;78;20957;-83
2022/04/15 04:11:12;;;;;;;54.70;34.30;;;;;;;10.86;72.02;99034.05;2279645;78;21013;-82
2022/04/15 04:14:13;;;;;;;50.73;35.23;;;;;;;10.83;72.09;99027.48;2280417;78;21370;-84
2022/04/15 04:17:13;;;;;;;52.63;35.47;;;;;;;10.78;72.74;99024.81;2281086;78;20950;-83
2022/04/15 04:20:13;;;;;;;52.47;37.03;;;;;;;10.79;72.77;99019.16;2281327;78;21069;-83
2022/04/15 04:23:14;;;;;;;48.80;36.70;;;;;;;10.77;74.66;99023.48;2280997;78;21369;-82
2022/04/15 04:26:14;;;;;;;57.10;39.40;;;;;;;10.74;74.02;99025.63;2280707;78;20918;-85
2022/04/15 04:29:15;;;;;;;59.60;40.90;;;;;;;10.71;75.68;99029.50;2280710;78;20921;-78
2022/04/15 04:32:15;;;;;;;53.10;36.40;;;;;;;10.70;75.70;99025.56;2281640;78;20922;-83
2022/04/15 04:35:16;;;;;;;61.70;39.00;;;;;;;10.66;75.83;99020.72;2279424;78;20906;-81
2022/04/15 04:38:16;;;;;;;50.37;35.90;;;;;;;10.65;75.53;99014.17;2280425;78;21376;-80
2022/04/15 04:41:16;;;;;;;52.63;37.03;;;;;;;10.65;75.79;99015.05;2281522;78;20977;-80
2022/04/15 04:44:17;;;;;;;52.53;38.80;;;;;;;10.67;76.13;99021.17;2281706;78;20942;-81
2022/04/15 04:47:17;;;;;;;58.03;38.90;;;;;;;10.63;77.45;99029.81;2280862;78;20945;-82
2022/04/15 04:50:17;;;;;;;53.50;35.80;;;;;;;10.61;77.27;99037.17;2280731;78;20989;-82
2022/04/15 04:53:18;;;;;;;56.57;38.77;;;;;;;10.58;77.47;99036.70;2253322;77;21000;-81
2022/04/15 04:56:18;;;;;;;48.80;36.60;;;;;;;10.56;78.12;99029.70;2248394;79;20960;-80
2022/04/15 04:59:22;;;;;;;55.73;38.03;;;;;;;10.56;78.04;99025.79;2247019;78;20964;-80
2022/04/15 05:02:19;;;;;;;53.07;37.83;;;;;;;10.57;78.37;99015.38;2247205;79;20916;-79
2022/04/15 05:05:20;;;;;;;61.37;43.43;;;;;;;10.59;78.73;99025.41;2248131;79;21374;-80
2022/04/15 05:08:20;;;;;;;56.47;37.87;;;;;;;10.60;79.11;99029.77;2248386;79;20959;-80
2022/04/15 05:11:20;;;;;;;54.03;37.37;;;;;;;10.57;79.85;99033.64;2248550;79;20888;-80
2022/04/15 05:14:21;;;;;;;50.60;37.47;;;;;;;10.57;80.16;99030.16;2249179;79;20967;-80
2022/04/15 05:17:22;;;;;;;46.53;35.03;;;;;;;10.57;80.02;99033.64;2249194;79;20966;-80
2022/04/15 05:20:22;;;;;;;48.20;35.20;;;;;;;10.58;81.07;99048.87;2248195;79;20963;-80
2022/04/15 05:23:23;;;;;;;51.40;38.90;;;;;;;10.56;80.46;99050.16;2248801;79;21011;-81
2022/04/15 05:26:23;;;;;;;46.17;36.20;;;;;;;10.56;81.79;99059.72;2246938;79;20936;-81
2022/04/15 05:29:24;;;;;;;51.97;37.97;;;;;;;10.54;81.80;99054.48;2247206;79;20940;-80
2022/04/15 05:32:24;;;;;;;44.07;32.43;;;;;;;10.53;81.57;99058.82;2247642;79;20980;-79
2022/04/15 05:35:24;;;;;;;56.67;37.07;;;;;;;10.56;82.41;99065.82;2247348;79;21395;-82
2022/04/15 05:38:25;;;;;;;53.13;38.20;;;;;;;10.58;82.23;99067.15;2248082;79;20960;-79
2022/04/15 05:41:28;;;;;;;51.50;37.47;;;;;;;10.63;82.47;99068.09;2246791;79;21297;-82
2022/04/15 05:44:28;;;;;;;56.13;38.67;;;;;;;10.66;82.40;99074.24;2247732;79;20935;-80
2022/04/15 05:47:29;;;;;;;50.87;37.83;;;;;;;10.68;82.56;99079.06;2247517;78;20986;-81
2022/04/15 05:50:31;;;;;;;52.07;36.93;;;;;;;10.71;82.86;99081.71;2247961;79;21355;-81
2022/04/15 05:53:34;;;;;;;48.30;33.27;;;;;;;10.73;82.79;99081.31;2250928;78;21080;-82
2022/04/15 05:56:35;;;;;;;46.40;33.77;;;;;;;10.78;83.19;99084.87;2280240;78;21400;-79
2022/04/15 05:59:35;;;;;;;45.60;34.77;;;;;;;10.82;83.36;99078.84;2280393;78;20969;-83
2022/04/15 06:02:36;;;;;;;52.77;40.53;;;;;;;10.85;83.27;99080.19;2280626;78;20973;-80
2022/04/15 06:05:36;;;;;;;44.73;34.33;;;;;;;10.87;83.67;99085.86;2280117;78;20969;-80
2022/04/15 06:08:36;;;;;;;45.70;35.70;;;;;;;10.89;84.42;99082.84;2280622;78;20981;-80
2022/04/15 06:11:41;;;;;;;41.97;32.17;;;;;;;10.95;83.47;99079.01;2280545;78;20954;-80
2022/04/15 06:14:40;;;;;;;40.53;29.43;;;;;;;11.04;83.88;99081.75;2280134;78;20913;-82
2022/04/15 06:17:40;;;;;;;40.03;29.50;;;;;;;11.06;83.80;99087.87;2279453;78;20933;-78
2022/04/15 06:20:41;;;;;;;32.07;25.60;;;;;;;11.11;83.90;99084.89;2280494;78;20937;-81
2022/04/15 06:23:41;;;;;;;38.30;27.83;;;;;;;11.13;84.42;99089.28;2280576;78;20997;-82
2022/04/15 06:26:42;;;;;;;31.57;26.53;;;;;;;11.09;83.87;99085.30;2280594;78;20939;-79
2022/04/15 06:29:42;;;;;;;35.40;29.20;;;;;;;11.08;83.98;99079.20;2280799;78;21000;-80
2022/04/15 06:32:42;;;;;;;35.23;26.73;;;;;;;11.14;83.78;99071.44;2281124;78;20910;-80
2022/04/15 06:35:43;;;;;;;36.60;28.40;;;;;;;11.25;83.94;99076.80;2279647;78;21333;-79
2022/04/15 06:38:43;;;;;;;37.33;29.83;;;;;;;11.34;83.54;99078.69;2279610;78;20918;-83
2022/04/15 06:41:44;;;;;;;33.17;27.63;;;;;;;11.44;83.30;99065.75;2279722;78;21077;-83
2022/04/15 06:44:44;;;;;;;43.40;32.87;;;;;;;11.60;83.19;99064.62;2280341;78;20883;-84
2022/04/15 06:47:44;;;;;;;38.33;29.33;;;;;;;11.66;82.97;99073.41;2279881;78;20934;-78
2022/04/15 06:50:45;;;;;;;40.43;31.27;;;;;;;11.69;82.62;99081.71;2279393;78;21471;-81
2022/04/15 06:53:45;;;;;;;38.63;32.27;;;;;;;11.74;82.59;99086.56;2254128;78;21031;-82
2022/04/15 06:56:46;;;;;;;31.13;25.33;;;;;;;11.75;83.22;99099.66;2247834;79;20951;-83
2022/04/15 06:59:46;;;;;;;35.00;28.27;;;;;;;11.72;83.59;99100.05;2248492;79;20967;-82
2022/04/15 07:02:46;;;;;;;35.10;27.87;;;;;;;11.79;83.10;99092.75;2249167;79;20920;-84
2022/04/15 07:05:47;;;;;;;35.73;27.93;;;;;;;11.93;82.89;99096.83;2247976;79;20995;-83
2022/04/15 07:08:47;;;;;;;31.40;27.93;;;;;;;11.99;83.47;99091.66;2248089;79;21367;-82
2022/04/15 07:11:48;;;;;;;32.77;28.60;;;;;;;12.03;82.85;99098.67;2248109;79;20916;-82
2022/04/15 07:14:48;;;;;;;31.53;26.93;;;;;;;12.05;83.29;99103.49;2247755;78;20983;-81
2022/04/15 07:17:49;;;;;;;34.10;27.93;;;;;;;12.00;83.11;99100.83;2248168;79;20995;-81
2022/04/15 07:20:49;;;;;;;33.63;29.60;;;;;;;11.96;83.55;99102.09;2248789;78;20968;-80
2022/04/15 07:23:50;;;;;;;37.70;31.43;;;;;;;11.94;83.39;99102.50;2247782;78;21042;-81
2022/04/15 07:26:50;;;;;;;34.63;30.87;;;;;;;11.98;82.92;99099.06;2248851;79;21260;-80
2022/04/15 07:29:50;;;;;;;36.23;32.17;;;;;;;12.01;82.81;99100.39;2248468;79;20991;-81
2022/04/15 07:32:51;;;;;;;40.25;32.30;;;;;;;12.08;82.75;99108.75;2247439;79;21334;-79
2022/04/15 07:35:51;;;;;;;41.98;33.85;;;;;;;12.10;82.74;99107.91;2247632;79;20991;-81
2022/04/15 07:38:52;;;;;;;40.73;32.80;;;;;;;12.09;82.57;99110.08;2247802;79;20972;-79
2022/04/15 07:41:52;;;;;;;38.88;33.28;;;;;;;12.13;82.45;99110.55;2248402;79;20900;-80
2022/04/15 07:44:52;;;;;;;39.60;34.63;;;;;;;12.27;82.55;99108.09;2248292;78;21437;-80
2022/04/15 07:47:53;;;;;;;42.47;35.57;;;;;;;12.44;81.81;99113.05;2247456;79;21262;-84
2022/04/15 07:50:55;;;;;;;40.15;33.73;;;;;;;12.61;81.12;99107.95;2247493;79;21022;-80
2022/04/15 07:53:54;;;;;;;39.60;32.70;;;;;;;12.87;80.25;99108.14;2278814;77;21011;-82
2022/04/15 07:56:54;;;;;;;42.30;33.53;;;;;;;13.12;79.65;99106.58;2289677;78;21303;-82
2022/04/15 07:59:55;;;;;;;39.23;34.00;;;;;;;13.29;78.67;99109.33;2290494;78;20947;-81
2022/04/15 08:02:55;;;;;;;38.58;33.30;;;;;;;13.29;78.15;99120.70;2291559;78;20934;-82
2022/04/15 08:05:56;;;;;;;40.33;32.25;;;;;;;13.22;77.92;99118.91;2289730;78;20919;-84
2022/04/15 08:08:56;;;;;;;42.05;35.35;;;;;;;13.27;78.11;99123.74;2289326;78;20994;-84
2022/04/15 08:11:56;;;;;;;36.93;32.88;;;;;;;13.28;78.06;99119.38;2289432;78;20924;-84
2022/04/15 08:14:57;;;;;;;36.83;31.12;;;;;;;13.16;78.02;99130.63;2289848;78;21088;-81
2022/04/15 08:17:57;;;;;;;37.35;30.08;;;;;;;12.96;78.42;99134.84;2289879;78;20944;-84
2022/04/15 08:20:58;;;;;;;38.98;31.45;;;;;;;12.74;78.67;99135.98;2289871;78;21397;-83
2022/04/15 08:23:59;;;;;;;38.95;31.95;;;;;;;12.61;79.75;99139.37;2289950;78;20991;-83
2022/04/15 08:26:59;;;;;;;36.03;31.30;;;;;;;12.47;80.03;99142.31;2289836;78;20947;-83
2022/04/15 08:29:59;;;;;;;36.00;30.87;;;;;;;12.43;80.35;99140.53;2290183;78;21446;-83
2022/04/15 08:32:59;;;;;;;36.77;30.52;;;;;;;12.40;80.67;99137.45;2290119;78;21015;-82
2022/04/15 08:36:00;;;;;;;35.00;30.50;;;;;;;12.39;80.31;99142.23;2290495;78;20971;-83
2022/04/15 08:39:01;;;;;;;36.20;30.75;;;;;;;12.53;80.21;99136.25;2289581;78;20986;-84
2022/04/15 08:42:00;;;;;;;31.62;27.17;;;;;;;12.69;79.75;99140.75;2289629;78;20963;-82
2022/04/15 08:45:01;;;;;;;35.85;31.45;;;;;;;12.79;79.63;99136.45;2289719;78;21651;-82
2022/04/15 08:48:01;;;;;;;34.67;29.25;;;;;;;12.80;79.92;99137.78;2289372;78;20923;-83
2022/04/15 08:51:02;;;;;;;37.00;31.05;;;;;;;12.86;79.41;99135.64;2290380;78;21335;-84
2022/04/15 08:54:02;;;;;;;39.00;30.55;;;;;;;12.98;79.82;99134.41;2282598;78;21065;-82
2022/04/15 08:57:02;;;;;;;29.60;25.62;;;;;;;13.07;79.35;99134.51;2279202;78;21000;-83
2022/04/15 09:00:05;;;;;;;25.90;23.20;;;;;;;13.13;79.05;99141.09;2280507;78;21780;-83
2022/04/15 09:03:03;;;;;;;23.60;21.15;;;;;;;13.12;78.52;99136.72;2279488;78;20918;-82
2022/04/15 09:06:04;;;;;;;24.05;20.92;;;;;;;13.30;78.13;99135.55;2279479;78;20974;-82
2022/04/15 09:09:04;;;;;;;26.05;21.27;;;;;;;13.63;77.37;99135.28;2279698;78;21372;-83
2022/04/15 09:12:05;;;;;;;19.65;17.75;;;;;;;13.93;75.67;99135.85;2279968;78;20938;-82
2022/04/15 09:15:05;;;;;;;17.67;15.90;;;;;;;14.13;74.65;99139.41;2280120;78;21296;-82
2022/04/15 09:18:05;;;;;;;19.75;16.32;;;;;;;14.29;73.81;99132.00;2279771;78;21024;-81
2022/04/15 09:21:06;;;;;;;16.82;15.03;;;;;;;14.32;73.17;99127.19;2280181;78;20971;-83
2022/04/15 09:24:11;;;;;;;15.15;13.65;;;;;;;14.54;72.59;99125.05;2280123;78;21372;-84
2022/04/15 09:27:10;;;;;;;15.70;13.78;;;;;;;14.88;72.19;99127.70;2280308;78;21311;-82
2022/04/15 09:30:10;;;;;;;12.73;11.20;;;;;;;14.84;70.76;99127.27;2280101;78;20997;-81
2022/04/15 09:33:12;;;;;;;5.87;5.37;;;;;;;14.56;71.73;99116.73;2280551;78;20930;-83
2022/04/15 09:36:12;;;;;;;6.33;5.72;;;;;;;14.37;67.80;99131.13;2281032;77;20961;-84
2022/04/15 09:39:14;;;;;;;7.00;5.80;;;;;;;14.40;69.11;99117.56;2279038;78;21418;-82
2022/04/15 09:42:13;;;;;;;6.67;5.12;;;;;;;14.64;67.63;99125.48;2279161;77;20950;-82
2022/04/15 09:45:16;;;;;;;5.85;5.30;;;;;;;15.04;67.40;99121.54;2258348;78;20953;-82
2022/04/15 09:48:15;;;;;;;5.75;5.15;;;;;;;15.26;67.00;99120.62;2279634;77;21393;-82
2022/04/15 09:51:16;;;;;;;14.43;9.03;;;;;;;15.23;66.96;99120.62;2279633;78;20923;-81
2022/04/15 09:54:16;;;;;;;13.58;7.30;;;;;;;15.29;66.09;99127.62;2258159;77;21339;-81
2022/04/15 09:57:17;;;;;;;8.30;5.63;;;;;;;15.36;65.00;99116.20;2248436;78;20911;-82
2022/04/15 10:00:18;;;;;;;3.98;3.35;;;;;;;15.50;65.09;99121.42;2247647;79;20952;-83
2022/04/15 10:03:18;;;;;;;4.30;3.60;;;;;;;15.62;63.87;99115.30;2246900;78;20916;-82
2022/04/15 10:06:18;;;;;;;7.35;3.45;;;;;;;15.81;61.52;99109.08;2246555;78;20923;-82
2022/04/15 10:09:18;;;;;;;4.65;2.75;;;;;;;15.99;62.06;99107.66;2246781;79;20944;-82
2022/04/15 10:12:19;;;;;;;4.65;2.85;;;;;;;16.08;61.14;99100.14;2246727;78;20935;-82
2022/04/15 10:15:19;;;;;;;3.12;2.72;;;;;;;15.99;61.60;99094.94;2246835;78;21333;-79
2022/04/15 10:18:20;;;;;;;6.50;4.58;;;;;;;16.27;62.17;99096.95;2247798;78;20924;-79
2022/04/15 10:21:20;;;;;;;4.75;3.25;;;;;;;16.61;60.07;99097.15;2247916;79;20951;-79
2022/04/15 10:24:20;;;;;;;4.85;4.30;;;;;;;16.88;59.61;99086.39;2247415;79;21038;-80
2022/04/15 10:27:21;;;;;;;2.70;2.50;;;;;;;17.00;58.68;99084.08;2247856;79;20951;-78
2022/04/15 10:30:23;;;;;;;5.05;2.98;;;;;;;17.33;57.98;99076.69;2225705;79;20947;-80
2022/04/15 10:33:24;;;;;;;3.10;2.77;;;;;;;17.50;56.99;99083.54;2248119;79;20962;-83
2022/04/15 10:36:24;;;;;;;10.53;9.45;;;;;;;17.80;57.50;99075.70;2247868;78;20924;-83
2022/04/15 10:39:24;;;;;;;7.97;2.90;;;;;;;18.26;56.97;99069.78;2247314;79;20912;-83
2022/04/15 10:42:25;;;;;;;4.58;3.33;;;;;;;18.21;55.26;99067.66;2247475;78;21356;-83
2022/04/15 10:45:25;;;;;;;2.87;2.58;;;;;;;17.83;55.82;99061.14;2246606;79;20892;-82
2022/04/15 10:48:25;;;;;;;2.87;2.35;;;;;;;17.74;56.28;99061.72;2246664;78;20961;-81
2022/04/15 10:51:27;;;;;;;3.55;2.70;;;;;;;17.60;56.35;99059.23;2246273;78;21340;-82
2022/04/15 10:54:26;;;;;;;5.37;2.55;;;;;;;17.15;55.67;99071.17;2273151;77;21028;-79
2022/04/15 10:57:27;;;;;;;6.17;4.45;;;;;;;16.54;58.31;99079.64;2290775;78;20960;-81
2022/04/15 11:03:46;;;;;;;12.28;7.53;;;;;;;14.32;69.43;99088.67;2289673;78;20911;-78
2022/04/15 11:06:46;;;;;;;9.55;8.58;;;;;;;14.04;71.00;99088.20;2289504;78;21318;-78
2022/04/15 11:09:46;;;;;;;11.35;10.03;;;;;;;14.05;71.20;99086.02;2289083;78;20963;-78
2022/04/15 11:12:48;;;;;;;9.58;8.48;;;;;;;14.12;72.61;99091.72;2288619;78;20977;-79
2022/04/15 11:15:47;;;;;;;11.90;9.18;;;;;;;14.22;71.93;99088.66;2289657;78;20971;-79
2022/04/15 11:18:50;;;;;;;9.50;8.55;;;;;;;14.28;72.18;99092.61;2289966;78;20972;-78
2022/04/15 11:21:53;;;;;;;8.95;7.28;;;;;;;14.20;72.88;99096.98;2289704;78;20928;-79
2022/04/15 11:24:51;;;;;;;18.32;7.70;;;;;;;13.94;73.07;99103.05;2289663;78;21159;-82
2022/04/15 11:27:52;;;;;;;15.78;7.75;;;;;;;13.62;73.42;99130.46;2292212;78;20944;-81
2022/04/15 11:30:52;;;;;;;8.43;7.72;;;;;;;12.90;74.27;99121.70;2291395;78;21469;-80
2022/04/15 11:33:52;;;;;;;13.03;8.93;;;;;;;12.43;75.85;99130.94;2290224;78;20944;-79
2022/04/15 11:36:59;;;;;;;11.80;9.85;;;;;;;12.23;78.43;99139.46;2291328;78;20972;-79
2022/04/15 11:39:59;;;;;;;9.20;7.42;;;;;;;12.09;78.18;99138.86;2290186;78;20951;-79
2022/04/15 11:43:00;;;;;;;7.47;5.47;;;;;;;12.08;77.60;99131.00;2289353;78;21600;-79
2022/04/15 11:46:00;;;;;;;6.83;5.62;;;;;;;12.06;76.07;99128.36;2289480;78;20916;-78
2022/04/15 11:49:00;;;;;;;8.80;6.87;;;;;;;12.24;74.83;99140.79;2289583;78;20923;-78
2022/04/15 11:52:01;;;;;;;6.77;4.33;;;;;;;12.54;74.84;99125.79;2288901;78;20908;-78
2022/04/15 11:55:01;;;;;;;6.87;5.78;;;;;;;12.83;75.26;99122.09;2281635;78;21028;-80
2022/04/15 11:58:01;;;;;;;5.17;4.67;;;;;;;13.00;75.04;99119.58;2280042;78;21357;-79
2022/04/15 12:01:02;;;;;;;6.75;6.05;;;;;;;13.02;74.73;99112.20;2279784;77;20890;-79
2022/04/15 12:04:02;;;;;;;6.75;5.30;;;;;;;13.08;74.52;99108.75;2280050;77;20971;-79
2022/04/15 12:07:03;;;;;;;6.83;5.62;;;;;;;13.22;74.30;99111.48;2280412;77;20918;-79
2022/04/15 12:10:04;;;;;;;6.62;5.15;;;;;;;13.43;74.26;99102.84;2280576;77;20922;-81
2022/04/15 12:13:03;;;;;;;4.28;3.95;;;;;;;13.66;73.91;99103.38;2280970;77;20958;-83
2022/04/15 12:16:04;;;;;;;4.72;4.10;;;;;;;13.90;73.25;99106.98;2280553;78;20922;-82
2022/04/15 12:19:04;;;;;;;4.78;4.33;;;;;;;14.02;72.94;99105.26;2280665;78;20984;-82
2022/04/15 12:22:05;;;;;;;5.60;3.47;;;;;;;14.16;71.97;99099.16;2280431;78;21279;-82
2022/04/15 12:25:05;;;;;;;3.83;3.52;;;;;;;14.16;70.80;99093.47;2279883;77;20981;-83
2022/04/15 12:29:47;;;;;;;4.15;3.58;;;;;;;14.16;70.75;99096.09;2281064;77;20945;-83
2022/04/15 12:31:08;;;;;;;4.47;2.83;;;;;;;14.10;70.96;99085.59;2260766;78;20977;-82
2022/04/15 12:34:08;;;;;;;3.80;3.27;;;;;;;14.19;70.04;99080.78;2279873;78;20914;-82
2022/04/15 12:37:09;;;;;;;3.70;2.92;;;;;;;14.24;70.00;99081.66;2280249;77;20938;-81
2022/04/15 12:40:09;;;;;;;3.20;2.90;;;;;;;14.22;68.67;99080.35;2281289;78;21372;-81
2022/04/15 12:43:09;;;;;;;3.80;3.10;;;;;;;14.29;70.37;99072.05;2281033;77;20957;-81
2022/04/15 12:46:10;;;;;;;5.10;4.12;;;;;;;14.44;68.31;99069.89;2280811;78;21664;-81
2022/04/15 12:49:10;;;;;;;5.05;4.50;;;;;;;14.42;68.78;99065.04;2280356;78;20977;-82
2022/04/15 12:52:11;;;;;;;5.75;4.78;;;;;;;14.38;68.50;99061.54;2280336;77;20969;-80
2022/04/15 12:55:11;;;;;;;5.08;4.67;;;;;;;14.62;68.78;99069.44;2280640;78;21344;-80
2022/04/15 12:58:11;;;;;;;6.05;5.45;;;;;;;14.87;68.49;99064.19;2280848;78;20886;-80
2022/04/15 13:01:12;;;;;;;7.80;5.58;;;;;;;14.94;68.14;99068.11;2281027;77;21008;-81
2022/04/15 13:04:15;;;;;;;8.00;6.10;;;;;;;14.97;67.98;99060.22;2260382;78;20954;-82
2022/04/15 13:07:15;;;;;;;7.20;6.50;;;;;;;15.04;67.55;99054.51;2281277;78;20954;-82
2022/04/15 13:10:15;;;;;;;7.55;6.80;;;;;;;14.94;67.05;99052.78;2280652;78;20953;-82
2022/04/15 13:13:15;;;;;;;7.55;6.83;;;;;;;14.74;67.53;99056.77;2280740;77;20966;-81
2022/04/15 13:16:16;;;;;;;8.25;7.47;;;;;;;14.50;68.70;99058.94;2279969;78;21388;-83
2022/04/15 13:19:17;;;;;;;10.43;8.95;;;;;;;14.37;69.24;99051.03;2280158;78;20926;-82
2022/04/15 13:22:16;;;;;;;10.05;8.93;;;;;;;14.26;69.72;99053.22;2280149;77;21341;-81
2022/04/15 13:25:18;;;;;;;10.72;9.70;;;;;;;14.06;70.62;99059.33;2279620;77;21001;-81
2022/04/15 13:28:17;;;;;;;13.53;12.20;;;;;;;13.79;72.06;99058.38;2279916;77;21001;-81
2022/04/15 13:31:18;;;;;;;11.83;10.72;;;;;;;13.57;72.97;99061.81;2280321;78;20955;-80
2022/04/15 13:34:19;;;;;;;15.10;11.55;;;;;;;13.26;74.08;99066.94;2280401;78;20989;-82
2022/04/15 13:37:19;;;;;;;12.53;10.72;;;;;;;13.02;74.56;99064.16;2280402;78;21289;-84
2022/04/15 13:40:20;;;;;;;8.95;8.13;;;;;;;12.86;74.50;99064.47;2280937;78;20981;-81
2022/04/15 13:43:20;;;;;;;9.78;7.85;;;;;;;12.78;73.48;99069.22;2280890;77;20969;-80
2022/04/15 13:46:20;;;;;;;10.45;8.05;;;;;;;12.72;73.72;99077.48;2281145;78;21001;-80
2022/04/15 13:49:21;;;;;;;14.15;10.70;;;;;;;12.68;75.00;99082.25;2281126;77;20953;-80
2022/04/15 13:58:59;;;;;;;22.87;17.07;;;;;;;12.47;76.05;99077.28;2290913;77;20943;-80
2022/04/15 14:01:59;;;;;;;38.35;25.70;;;;;;;12.41;76.13;99080.73;2290727;78;20956;-81
2022/04/15 14:05:01;;;;;;;47.10;30.92;;;;;;;12.42;76.68;99084.67;2291538;78;20916;-83